createdAt,value
2018-05-04T15:18:34.915Z,70.70
2018-05-04T15:21:45.605Z,70.60
2018-05-04T15:24:55.941Z,72.70
2018-05-04T15:28:05.340Z,73.20
2018-05-04T15:31:16.003Z,72.90
2018-05-04T15:34:26.085Z,71.20
2018-05-04T15:37:36.375Z,72.80
2018-05-04T15:40:46.825Z,72.00
2018-05-04T15:43:56.980Z,73.60
2018-05-04T15:47:07.368Z,73.20
2018-05-04T15:50:23.011Z,71.80
2018-05-04T15:53:33.597Z,72.00
2018-05-04T15:56:46.870Z,73.30
2018-05-04T16:00:00.990Z,72.40
2018-05-04T16:03:11.021Z,73.00
2018-05-04T16:06:21.487Z,73.40
2018-05-04T16:09:31.767Z,74.10
2018-05-04T16:12:42.582Z,74.00
2018-05-04T16:15:54.018Z,73.40
2018-05-04T16:19:03.743Z,73.30
2018-05-04T16:22:13.880Z,73.40
2018-05-04T16:25:24.279Z,73.60
2018-05-04T16:28:34.163Z,73.40
2018-05-04T16:31:44.831Z,74.90
2018-05-04T16:34:54.667Z,74.40
2018-05-04T16:38:04.697Z,74.00
2018-05-04T16:41:15.073Z,72.90
2018-05-04T16:44:25.635Z,73.00
2018-05-04T16:51:12.959Z,73.90
2018-05-04T16:54:23.709Z,74.20
2018-05-04T16:57:34.289Z,76.50
2018-05-04T17:00:45.393Z,75.10
2018-05-04T17:03:56.015Z,76.60
2018-05-04T17:07:05.971Z,76.60
2018-05-04T17:10:15.967Z,76.40
2018-05-04T17:13:26.335Z,75.50
2018-05-04T17:16:36.818Z,75.50
2018-05-04T17:19:46.545Z,75.00
2018-05-04T17:22:57.378Z,75.30
2018-05-04T17:26:07.738Z,75.20
2018-05-04T17:29:18.501Z,74.50
2018-05-04T17:32:28.596Z,74.50
2018-05-04T17:35:38.175Z,76.00
2018-05-04T17:38:48.926Z,76.80
2018-05-04T17:41:58.904Z,76.70
2018-05-04T17:45:08.774Z,78.20
2018-05-04T17:48:18.519Z,78.30
2018-05-04T17:51:28.732Z,78.40
2018-05-04T17:54:38.491Z,79.20
2018-05-04T17:57:49.122Z,79.40
2018-05-04T18:00:59.106Z,80.20
2018-05-04T18:04:09.259Z,79.50
2018-05-04T18:07:19.267Z,80.50
2018-05-04T18:10:29.481Z,80.30
2018-05-04T18:13:43.173Z,82.40
2018-05-04T18:16:53.880Z,81.80
2018-05-04T18:20:04.387Z,82.40
2018-05-04T18:23:14.327Z,82.40
2018-05-04T18:26:24.202Z,83.00
2018-05-04T18:29:35.005Z,84.80
2018-05-04T18:32:46.177Z,85.30
2018-05-04T18:35:55.990Z,85.10
2018-05-04T18:39:07.330Z,86.30
2018-05-04T18:42:17.138Z,86.30
2018-05-04T18:45:27.335Z,87.00
2018-05-04T18:48:37.527Z,87.40
2018-05-04T18:51:47.769Z,87.80
2018-05-04T18:54:59.221Z,88.80
2018-05-04T18:58:09.420Z,88.80
2018-05-04T19:01:19.738Z,89.50
2018-05-04T19:04:30.023Z,89.60
2018-05-04T19:07:40.541Z,90.00
2018-05-04T19:10:52.285Z,90.00
2018-05-04T19:14:02.980Z,90.30
2018-05-04T19:17:12.999Z,90.50
2018-05-04T19:20:25.151Z,90.70
2018-05-04T19:23:36.003Z,90.60
2018-05-04T19:26:45.848Z,90.50
2018-05-04T19:29:55.835Z,90.50
2018-05-04T19:33:05.754Z,90.90
2018-05-04T19:36:15.838Z,91.00
2018-05-04T19:39:26.639Z,91.20
2018-05-04T19:42:37.803Z,91.80
2018-05-04T19:45:47.929Z,91.80
2018-05-04T19:48:59.353Z,92.70
2018-05-04T19:52:09.401Z,92.70
2018-05-04T19:55:19.174Z,93.10
2018-05-04T19:58:29.585Z,93.70
2018-05-04T20:01:40.313Z,93.90
2018-05-04T20:04:50.074Z,93.90
2018-05-04T20:08:00.898Z,94.90
2018-05-04T20:11:11.037Z,94.70
2018-05-04T20:14:20.989Z,95.60
2018-05-04T20:17:30.929Z,95.80
2018-05-04T20:20:40.835Z,96.20
2018-05-04T20:23:51.558Z,97.10
2018-05-04T20:27:02.122Z,97.00
2018-05-04T20:30:12.162Z,97.10
2018-05-04T20:33:22.061Z,97.40
2018-05-04T20:36:32.265Z,97.60
2018-05-04T20:39:42.639Z,97.90
2018-05-04T20:42:53.281Z,98.50
2018-05-04T20:46:04.478Z,99.10
2018-05-04T20:49:14.954Z,99.10
2018-05-04T20:52:24.891Z,99.30
2018-05-04T20:55:34.966Z,99.90
2018-05-04T20:58:45.233Z,99.90
2018-05-04T21:01:55.117Z,99.90
2018-05-04T21:05:05.036Z,99.90
2018-05-04T21:08:15.150Z,99.90
2018-05-04T21:11:25.733Z,99.90
2018-05-04T21:14:36.534Z,99.90
2018-05-04T21:17:46.738Z,99.90
2018-05-04T21:20:57.143Z,99.90
2018-05-04T21:24:07.071Z,99.90
2018-05-04T21:27:17.230Z,99.90
2018-05-04T21:30:27.185Z,99.90
2018-05-04T21:33:37.856Z,99.90
2018-05-04T21:36:47.742Z,99.90
2018-05-04T21:39:57.743Z,99.90
2018-05-04T21:43:08.344Z,99.90
2018-05-04T21:46:18.718Z,99.90
2018-05-04T21:49:29.291Z,99.90
2018-05-04T21:52:39.171Z,99.90
2018-05-04T21:55:49.431Z,99.90
2018-05-04T21:58:59.754Z,99.90
2018-05-04T22:02:10.367Z,99.90
2018-05-04T22:05:21.064Z,99.90
2018-05-04T22:08:31.391Z,99.90
2018-05-04T22:11:41.271Z,99.90
2018-05-04T22:14:50.913Z,99.90
2018-05-04T22:18:01.376Z,99.90
2018-05-04T22:21:11.664Z,99.90
2018-05-04T22:24:22.177Z,99.90
2018-05-04T22:27:32.146Z,99.90
2018-05-04T22:30:41.977Z,99.90
2018-05-04T22:33:52.825Z,99.90
2018-05-04T22:37:03.552Z,99.90
2018-05-04T22:40:13.645Z,99.90
2018-05-04T22:43:24.502Z,99.90
2018-05-04T22:46:34.393Z,99.90
2018-05-04T22:49:45.626Z,99.90
2018-05-04T22:52:55.865Z,99.90
2018-05-04T22:56:05.976Z,99.90
2018-05-04T22:59:16.253Z,99.90
2018-05-04T23:02:26.188Z,99.90
2018-05-04T23:05:36.385Z,99.90
2018-05-04T23:08:47.053Z,99.90
2018-05-04T23:11:57.170Z,99.90
2018-05-04T23:15:07.340Z,99.90
2018-05-04T23:18:17.433Z,99.90
2018-05-04T23:21:27.229Z,99.90
2018-05-04T23:24:38.747Z,99.90
2018-05-04T23:27:49.149Z,99.90
2018-05-04T23:30:59.688Z,99.90
2018-05-04T23:34:10.678Z,99.90
2018-05-04T23:37:20.765Z,99.90
2018-05-04T23:40:31.182Z,99.90
2018-05-04T23:43:41.030Z,99.90
2018-05-04T23:46:50.960Z,99.90
2018-05-04T23:50:00.813Z,99.90
2018-05-04T23:53:11.547Z,99.90
2018-05-04T23:56:21.537Z,99.90
2018-05-04T23:59:32.101Z,99.90
